createdAt,value
2023-02-12T00:01:25.309Z,27.10
2023-02-12T00:03:53.652Z,27.10
2023-02-12T00:06:23.645Z,27.10
2023-02-12T00:08:53.915Z,27.10
2023-02-12T00:11:31.202Z,27.00
2023-02-12T00:13:59.949Z,27.10
2023-02-12T00:16:30.273Z,27.00
2023-02-12T00:18:59.561Z,27.00
2023-02-12T00:21:28.460Z,27.00
2023-02-12T00:23:57.382Z,27.10
2023-02-12T00:26:25.972Z,27.00
2023-02-12T00:28:55.155Z,27.00
2023-02-12T00:31:27.064Z,27.00
2023-02-12T00:33:58.241Z,27.00
2023-02-12T00:36:32.040Z,27.00
2023-02-12T00:39:01.152Z,27.00
2023-02-12T00:41:30.084Z,27.00
2023-02-12T00:43:58.502Z,27.00
2023-02-12T00:46:26.714Z,27.00
2023-02-12T00:48:55.100Z,26.90
2023-02-12T00:51:23.570Z,27.00
2023-02-12T00:53:51.922Z,27.00
2023-02-12T00:56:20.129Z,26.90
2023-02-12T00:58:50.578Z,26.90
2023-02-12T01:01:19.587Z,26.90
2023-02-12T01:03:47.776Z,26.90
2023-02-12T01:06:16.242Z,26.90
2023-02-12T01:08:44.559Z,26.90
2023-02-12T01:11:14.050Z,27.00
2023-02-12T01:13:42.264Z,27.00
2023-02-12T01:16:22.830Z,26.90
2023-02-12T01:18:55.480Z,26.90
2023-02-12T01:21:27.344Z,26.90
2023-02-12T01:23:56.188Z,26.90
2023-02-12T01:26:26.076Z,26.90
2023-02-12T01:28:59.992Z,26.80
2023-02-12T01:31:30.984Z,26.80
2023-02-12T01:34:01.285Z,26.80
2023-02-12T01:36:30.751Z,26.80
2023-02-12T01:38:59.331Z,26.80
2023-02-12T01:41:37.050Z,26.80
2023-02-12T01:44:24.018Z,26.70
2023-02-12T01:47:03.472Z,26.70
2023-02-12T01:49:40.962Z,26.70
2023-02-12T01:52:18.765Z,26.70
2023-02-12T01:54:49.981Z,26.60
2023-02-12T01:57:19.559Z,26.60
2023-02-12T01:59:51.171Z,26.60
2023-02-12T02:02:19.439Z,26.60
2023-02-12T02:04:58.055Z,26.60
2023-02-12T02:07:26.701Z,26.60
2023-02-12T02:09:56.371Z,26.50
2023-02-12T02:12:26.130Z,26.50
2023-02-12T02:15:01.182Z,26.50
2023-02-12T02:17:37.631Z,26.50
2023-02-12T02:20:42.243Z,26.50
2023-02-12T02:23:21.239Z,26.50
2023-02-12T02:26:18.467Z,26.50
2023-02-12T02:28:49.825Z,26.50
2023-02-12T02:31:18.013Z,26.50
2023-02-12T02:33:56.806Z,26.50
2023-02-12T02:37:00.037Z,26.40
2023-02-12T02:39:47.170Z,26.40
2023-02-12T02:42:38.558Z,26.40
2023-02-12T02:45:17.200Z,26.30
2023-02-12T02:48:00.832Z,26.30
2023-02-12T02:50:31.255Z,26.30
2023-02-12T02:53:09.549Z,26.20
2023-02-12T02:55:41.579Z,26.20
2023-02-12T02:58:24.399Z,26.20
2023-02-12T03:01:05.103Z,26.10
2023-02-12T03:03:43.610Z,26.10
2023-02-12T03:06:23.506Z,26.00
2023-02-12T03:08:59.537Z,25.90
2023-02-12T03:11:34.018Z,25.90
2023-02-12T03:14:08.655Z,25.90
2023-02-12T03:16:43.682Z,25.80
2023-02-12T03:19:18.918Z,25.90
2023-02-12T03:22:02.760Z,25.90
2023-02-12T03:26:48.230Z,25.90
2023-02-12T03:29:16.574Z,25.90
2023-02-12T03:32:17.232Z,25.90
2023-02-12T03:34:56.292Z,25.90
2023-02-12T03:37:33.149Z,25.90
2023-02-12T03:40:10.443Z,25.90
2023-02-12T03:42:58.866Z,25.90
2023-02-12T03:45:52.687Z,25.90
2023-02-12T03:48:46.109Z,25.90
2023-02-12T03:51:27.507Z,25.90
2023-02-12T03:53:57.784Z,25.80
2023-02-12T03:56:49.301Z,25.80
2023-02-12T03:59:17.903Z,25.80
2023-02-12T04:01:46.842Z,25.90
2023-02-12T04:04:15.679Z,25.80
2023-02-12T04:06:46.359Z,25.80
2023-02-12T04:09:15.565Z,25.90
2023-02-12T04:12:21.973Z,25.80
2023-02-12T04:14:50.215Z,25.80
2023-02-12T04:17:36.762Z,25.70
2023-02-12T04:20:49.572Z,25.70
2023-02-12T04:23:23.729Z,25.70
2023-02-12T04:26:13.645Z,25.70
2023-02-12T04:29:00.299Z,25.70
2023-02-12T04:31:43.034Z,25.70
2023-02-12T04:34:32.964Z,25.70
2023-02-12T04:37:10.453Z,25.80
2023-02-12T04:39:41.618Z,25.80
2023-02-12T04:42:10.493Z,25.70
2023-02-12T04:44:41.292Z,25.70
2023-02-12T04:47:12.664Z,25.70
2023-02-12T04:49:41.167Z,25.70
2023-02-12T04:52:10.190Z,25.70
2023-02-12T04:54:38.569Z,25.70
2023-02-12T04:57:06.816Z,25.70
2023-02-12T04:59:35.071Z,25.70
2023-02-12T05:02:03.439Z,25.70
2023-02-12T05:04:31.612Z,25.60
2023-02-12T05:06:59.762Z,25.70
2023-02-12T05:09:28.012Z,25.70
2023-02-12T05:11:56.330Z,25.70
2023-02-12T05:14:27.633Z,25.70
2023-02-12T05:16:56.007Z,25.70
2023-02-12T05:19:24.258Z,25.70
2023-02-12T05:21:52.790Z,25.70
2023-02-12T05:24:20.940Z,25.70
2023-02-12T05:26:50.753Z,25.70
2023-02-12T05:29:19.083Z,25.70
2023-02-12T05:31:47.637Z,25.60
2023-02-12T05:34:15.935Z,25.60
2023-02-12T05:36:47.447Z,25.60
2023-02-12T05:39:15.725Z,25.60
2023-02-12T05:41:44.040Z,25.60
2023-02-12T05:44:12.582Z,25.70
2023-02-12T05:46:41.029Z,25.70
2023-02-12T05:49:10.231Z,25.70
2023-02-12T05:51:39.368Z,25.70
2023-02-12T05:54:08.334Z,25.60
2023-02-12T05:56:44.956Z,25.70
2023-02-12T05:59:21.839Z,25.60
2023-02-12T06:01:51.595Z,25.70
2023-02-12T06:04:23.283Z,25.60
2023-02-12T06:06:55.489Z,25.70
2023-02-12T06:09:23.707Z,25.60
2023-02-12T06:11:52.101Z,25.60
2023-02-12T06:14:21.524Z,25.60
2023-02-12T06:16:51.834Z,25.60
2023-02-12T06:19:21.284Z,25.60
2023-02-12T06:21:49.766Z,25.50
2023-02-12T06:24:18.388Z,25.60
2023-02-12T06:26:49.869Z,25.60
2023-02-12T06:29:19.355Z,25.50
2023-02-12T06:31:47.809Z,25.60
2023-02-12T06:34:16.689Z,25.60
2023-02-12T06:36:46.212Z,25.50
2023-02-12T06:39:16.344Z,25.40
2023-02-12T06:41:45.160Z,25.40
2023-02-12T06:44:14.004Z,25.40
2023-02-12T06:46:42.567Z,25.40
2023-02-12T06:49:13.664Z,25.40
2023-02-12T06:51:42.544Z,25.30
2023-02-12T06:54:15.934Z,25.30
2023-02-12T06:56:44.658Z,25.40
2023-02-12T06:59:17.445Z,25.30
2023-02-12T07:01:45.972Z,25.40
2023-02-12T07:04:14.695Z,25.30
2023-02-12T07:06:43.086Z,25.40
2023-02-12T07:09:11.211Z,25.30
2023-02-12T07:11:39.488Z,25.30
2023-02-12T07:14:08.595Z,25.40
2023-02-12T07:16:36.833Z,25.40
2023-02-12T07:19:05.181Z,25.40
2023-02-12T07:21:33.421Z,25.40
2023-02-12T07:24:01.636Z,25.40
2023-02-12T07:26:30.043Z,25.40
2023-02-12T07:28:58.442Z,25.40
2023-02-12T07:31:26.970Z,25.40
2023-02-12T07:33:56.856Z,25.50
2023-02-12T07:36:27.264Z,25.50
2023-02-12T07:38:56.360Z,25.50
2023-02-12T07:41:30.680Z,25.50
2023-02-12T07:44:01.748Z,25.50
2023-02-12T07:46:32.698Z,25.60
2023-02-12T07:49:02.583Z,25.60
2023-02-12T07:51:31.782Z,25.70
2023-02-12T07:54:00.480Z,25.70
2023-02-12T07:56:31.025Z,25.80
2023-02-12T07:59:02.229Z,25.90
2023-02-12T08:01:33.458Z,25.90
2023-02-12T08:04:10.695Z,25.90
2023-02-12T08:06:41.910Z,26.00
2023-02-12T08:09:12.296Z,26.00
2023-02-12T08:11:42.422Z,26.00
2023-02-12T08:14:13.605Z,26.10
2023-02-12T08:16:43.344Z,26.00
2023-02-12T08:19:18.984Z,26.00
2023-02-12T08:21:53.358Z,26.00
2023-02-12T08:24:22.284Z,26.00
2023-02-12T08:26:51.060Z,26.10
2023-02-12T08:29:22.400Z,26.00
2023-02-12T08:31:55.230Z,26.10
2023-02-12T08:34:26.178Z,26.10
2023-02-12T08:36:55.809Z,26.10
2023-02-12T08:39:26.303Z,26.10
2023-02-12T08:41:59.575Z,26.20
2023-02-12T08:44:28.084Z,26.20
2023-02-12T08:46:56.328Z,26.30
2023-02-12T08:49:27.706Z,26.30
2023-02-12T08:51:57.989Z,26.30
2023-02-12T08:54:29.835Z,26.30
2023-02-12T08:56:59.855Z,26.40
2023-02-12T08:59:29.047Z,26.40
2023-02-12T09:01:57.573Z,26.50
2023-02-12T09:04:28.711Z,26.50
2023-02-12T09:06:57.728Z,26.60
2023-02-12T09:09:25.913Z,26.60
2023-02-12T09:11:54.092Z,26.70
2023-02-12T09:14:22.383Z,26.70
2023-02-12T09:16:51.279Z,26.80
2023-02-12T09:19:19.852Z,26.90
2023-02-12T09:21:58.099Z,27.00
2023-02-12T09:24:27.326Z,27.00
2023-02-12T09:26:55.657Z,26.90
2023-02-12T09:29:23.906Z,26.90
2023-02-12T09:31:52.357Z,27.00
2023-02-12T09:34:20.742Z,27.00
2023-02-12T09:36:49.180Z,27.00
2023-02-12T09:39:17.293Z,27.10
2023-02-12T09:42:07.172Z,27.20
2023-02-12T09:44:52.622Z,27.20
2023-02-12T09:47:39.005Z,27.10
2023-02-12T09:50:24.828Z,27.20
2023-02-12T09:52:54.489Z,27.20
2023-02-12T09:55:27.858Z,27.30
2023-02-12T09:57:56.426Z,27.30
2023-02-12T10:00:32.141Z,27.40
2023-02-12T10:03:06.122Z,27.40
2023-02-12T10:05:51.955Z,27.40
2023-02-12T10:08:38.623Z,27.50
2023-02-12T10:11:15.916Z,27.60
2023-02-12T10:13:47.176Z,27.70
2023-02-12T10:16:50.024Z,27.70
2023-02-12T10:19:36.667Z,27.80
2023-02-12T10:22:40.814Z,27.90
2023-02-12T10:25:44.540Z,27.90
2023-02-12T10:28:17.239Z,28.00
2023-02-12T10:30:52.205Z,28.00
2023-02-12T10:33:46.325Z,28.10
2023-02-12T10:36:36.061Z,28.10
2023-02-12T10:39:12.371Z,28.30
2023-02-12T10:42:08.661Z,28.40
2023-02-12T10:44:36.916Z,28.50
2023-02-12T10:47:05.089Z,28.50
2023-02-12T10:49:34.207Z,28.50
2023-02-12T10:52:33.543Z,28.50
2023-02-12T10:55:01.877Z,28.50
2023-02-12T10:57:39.302Z,28.50
2023-02-12T11:00:32.416Z,28.60
2023-02-12T11:03:14.504Z,28.60
2023-02-12T11:05:44.711Z,28.60
2023-02-12T11:08:31.017Z,28.60
2023-02-12T11:11:15.167Z,28.70
2023-02-12T11:13:55.162Z,28.80
2023-02-12T11:16:32.781Z,28.80
2023-02-12T11:19:09.611Z,28.80
2023-02-12T11:21:38.088Z,28.90
2023-02-12T11:24:29.948Z,29.00
2023-02-12T11:27:17.875Z,29.10
2023-02-12T11:29:48.087Z,29.20
2023-02-12T11:32:19.636Z,29.30
2023-02-12T11:35:18.409Z,29.30
2023-02-12T11:37:47.876Z,29.40
2023-02-12T11:40:33.970Z,29.40
2023-02-12T11:43:06.386Z,29.50
2023-02-12T11:45:48.357Z,29.50
2023-02-12T11:48:36.235Z,29.50
2023-02-12T11:51:07.969Z,29.60
2023-02-12T11:53:47.848Z,29.60
2023-02-12T11:56:16.797Z,29.60
2023-02-12T11:58:50.396Z,29.60
2023-02-12T12:01:37.767Z,29.60
2023-02-12T12:04:20.040Z,29.60
2023-02-12T12:06:57.293Z,29.70
2023-02-12T12:09:33.431Z,29.70
2023-02-12T12:12:07.648Z,29.70
2023-02-12T12:14:53.795Z,29.70
2023-02-12T12:17:27.606Z,29.80
2023-02-12T12:20:10.414Z,29.80
2023-02-12T12:23:01.344Z,29.90
2023-02-12T12:25:49.915Z,30.00
2023-02-12T12:29:02.033Z,30.10
2023-02-12T12:31:37.949Z,30.10
2023-02-12T12:34:27.762Z,30.10
2023-02-12T12:37:11.267Z,30.20
2023-02-12T12:39:54.576Z,30.30
2023-02-12T12:42:28.313Z,30.20
2023-02-12T12:45:27.629Z,30.30
2023-02-12T12:48:17.273Z,30.10
2023-02-12T12:51:24.691Z,30.20
2023-02-12T12:54:01.537Z,30.30
2023-02-12T12:56:50.072Z,30.40
2023-02-12T12:59:47.274Z,30.30
2023-02-12T13:02:36.884Z,30.40
2023-02-12T13:05:48.509Z,30.70
2023-02-12T13:08:26.928Z,30.60
2023-02-12T13:11:05.430Z,30.60
2023-02-12T13:14:08.853Z,30.60
2023-02-12T13:16:50.365Z,30.90
2023-02-12T13:19:33.684Z,30.80
2023-02-12T13:22:18.981Z,30.80
2023-02-12T13:25:22.849Z,30.80
2023-02-12T13:27:52.661Z,30.80
2023-02-12T13:30:23.405Z,30.90
2023-02-12T13:33:08.986Z,30.80
2023-02-12T13:35:42.429Z,31.00
2023-02-12T13:38:34.051Z,31.00
2023-02-12T13:41:08.600Z,30.70
2023-02-12T13:43:50.319Z,30.90
2023-02-12T13:46:49.127Z,30.80
2023-02-12T13:49:33.217Z,30.80
2023-02-12T13:52:07.097Z,30.70
2023-02-12T13:54:56.461Z,30.80
2023-02-12T13:57:24.788Z,30.70
2023-02-12T13:59:56.597Z,30.70
2023-02-12T14:02:33.960Z,30.70
2023-02-12T14:05:05.302Z,30.70
2023-02-12T14:07:46.162Z,30.70
2023-02-12T14:10:25.349Z,30.70
2023-02-12T14:12:57.465Z,30.80
2023-02-12T14:15:42.441Z,30.80
2023-02-12T14:18:35.720Z,30.80
2023-02-12T14:21:13.052Z,30.90
2023-02-12T14:23:43.008Z,30.90
2023-02-12T14:26:23.556Z,31.00
2023-02-12T14:28:59.747Z,30.90
2023-02-12T14:31:28.075Z,31.00
2023-02-12T14:34:08.389Z,31.10
2023-02-12T14:36:38.499Z,30.90
2023-02-12T14:39:22.154Z,30.70
2023-02-12T14:42:11.665Z,30.80
2023-02-12T14:44:55.516Z,30.80
2023-02-12T14:47:32.680Z,30.80
2023-02-12T14:50:12.225Z,31.00
2023-02-12T14:52:44.476Z,31.10
2023-02-12T14:55:29.332Z,31.20
2023-02-12T14:58:04.269Z,31.40
2023-02-12T15:00:37.181Z,31.40
2023-02-12T15:03:20.657Z,31.30
2023-02-12T15:06:19.662Z,31.40
2023-02-12T15:09:02.627Z,31.60
2023-02-12T15:11:54.854Z,31.60
2023-02-12T15:14:32.521Z,31.40
2023-02-12T15:17:12.492Z,31.50
2023-02-12T15:20:02.240Z,31.50
2023-02-12T15:22:56.701Z,31.50
2023-02-12T15:25:29.580Z,31.40
2023-02-12T15:28:30.275Z,31.50
2023-02-12T15:31:07.115Z,31.70
2023-02-12T15:33:38.110Z,31.80
2023-02-12T15:36:10.369Z,31.90
2023-02-12T15:38:41.417Z,31.80
2023-02-12T15:41:23.938Z,31.90
2023-02-12T15:43:52.155Z,32.20
2023-02-12T15:46:20.297Z,32.50
2023-02-12T15:48:48.688Z,32.50
2023-02-12T15:51:19.980Z,32.40
2023-02-12T15:53:48.787Z,32.70
2023-02-12T15:56:21.078Z,32.70
2023-02-12T15:58:58.177Z,32.60
2023-02-12T16:01:32.001Z,32.40
2023-02-12T16:04:06.734Z,32.10
2023-02-12T16:06:37.000Z,32.00
2023-02-12T16:09:28.325Z,32.20
2023-02-12T16:11:58.464Z,31.90
2023-02-12T16:14:50.270Z,31.40
2023-02-12T16:17:35.779Z,31.30
2023-02-12T16:20:17.732Z,31.20
2023-02-12T16:22:47.445Z,31.40
2023-02-12T16:25:18.226Z,31.70
2023-02-12T16:28:02.833Z,31.90
2023-02-12T16:30:39.430Z,31.90
2023-02-12T16:33:36.797Z,31.80
2023-02-12T16:36:15.837Z,32.00
2023-02-12T16:39:04.914Z,32.20
2023-02-12T16:41:35.973Z,32.30
2023-02-12T16:44:04.175Z,31.90
2023-02-12T16:46:35.015Z,32.00
2023-02-12T16:49:03.753Z,32.10
2023-02-12T16:51:34.655Z,32.10
2023-02-12T16:54:05.540Z,32.20
2023-02-12T16:56:37.860Z,32.20
2023-02-12T16:59:06.134Z,31.80
2023-02-12T17:01:38.215Z,32.10
2023-02-12T17:04:09.136Z,32.20
2023-02-12T17:06:37.395Z,32.00
2023-02-12T17:09:05.782Z,31.90
2023-02-12T17:11:34.071Z,31.80
2023-02-12T17:14:02.324Z,31.90
2023-02-12T17:16:32.124Z,32.00
2023-02-12T17:19:01.338Z,32.00
2023-02-12T17:21:38.337Z,31.90
2023-02-12T17:24:22.684Z,31.70
2023-02-12T17:26:52.056Z,31.60
2023-02-12T17:29:22.928Z,31.70
2023-02-12T17:31:52.246Z,31.20
2023-02-12T17:34:21.546Z,30.80
2023-02-12T17:36:50.247Z,30.80
2023-02-12T17:39:19.530Z,30.70
2023-02-12T17:41:47.946Z,30.80
2023-02-12T17:44:16.220Z,30.70
2023-02-12T17:46:44.541Z,30.50
2023-02-12T17:49:12.714Z,30.30
2023-02-12T17:51:40.951Z,30.30
2023-02-12T17:54:09.203Z,30.10
2023-02-12T17:56:37.478Z,30.00
2023-02-12T17:59:05.627Z,29.90
2023-02-12T18:01:34.073Z,29.90
2023-02-12T18:04:02.241Z,29.90
2023-02-12T18:06:31.623Z,29.90
2023-02-12T18:09:00.549Z,29.80
2023-02-12T18:11:29.389Z,29.70
2023-02-12T18:13:58.653Z,29.60
2023-02-12T18:16:29.851Z,29.40
2023-02-12T18:18:58.106Z,29.40
2023-02-12T18:21:26.395Z,29.20
2023-02-12T18:23:55.256Z,29.20
2023-02-12T18:26:24.256Z,29.20
2023-02-12T18:28:52.656Z,29.10
2023-02-12T18:31:21.587Z,29.10
2023-02-12T18:33:50.228Z,29.10
2023-02-12T18:36:20.326Z,28.90
2023-02-12T18:38:50.350Z,28.80
2023-02-12T18:41:27.216Z,28.90
2023-02-12T18:43:56.865Z,28.80
2023-02-12T18:46:30.729Z,28.60
2023-02-12T18:48:59.654Z,28.50
2023-02-12T18:51:30.622Z,28.50
2023-02-12T18:54:01.026Z,28.50
2023-02-12T18:56:35.413Z,28.40
2023-02-12T18:59:05.828Z,28.40
2023-02-12T19:01:36.156Z,28.40
2023-02-12T19:04:08.975Z,28.30
2023-02-12T19:06:44.045Z,28.30
2023-02-12T19:09:13.648Z,28.20
2023-02-12T19:11:41.890Z,28.20
2023-02-12T19:14:10.276Z,28.20
2023-02-12T19:19:31.342Z,28.10
2023-02-12T19:21:59.646Z,28.10
2023-02-12T19:24:40.875Z,28.10
2023-02-12T19:27:13.008Z,28.10
2023-02-12T19:29:41.180Z,28.10
2023-02-12T19:32:10.803Z,28.00
2023-02-12T19:34:39.207Z,28.00
2023-02-12T19:37:07.501Z,28.10
2023-02-12T19:39:35.767Z,28.00
2023-02-12T19:42:04.264Z,28.00
2023-02-12T19:44:32.791Z,28.00
2023-02-12T19:47:00.999Z,28.00
2023-02-12T19:49:29.961Z,28.00
2023-02-12T19:51:58.267Z,28.00
2023-02-12T19:54:26.544Z,27.90
2023-02-12T19:56:55.544Z,28.00
2023-02-12T19:59:25.428Z,27.90
2023-02-12T20:01:54.332Z,27.90
2023-02-12T20:04:24.183Z,27.90
2023-02-12T20:06:52.734Z,27.80
2023-02-12T20:09:23.015Z,27.80
2023-02-12T20:11:51.609Z,27.80
2023-02-12T20:14:20.778Z,27.80
2023-02-12T20:16:50.146Z,27.80
2023-02-12T20:19:22.588Z,27.80
2023-02-12T20:21:51.808Z,27.80
2023-02-12T20:24:20.684Z,27.80
2023-02-12T20:26:49.313Z,27.80
2023-02-12T20:29:17.477Z,27.80
2023-02-12T20:31:46.027Z,27.80
2023-02-12T20:34:16.212Z,27.80
2023-02-12T20:36:45.874Z,27.80
2023-02-12T20:39:20.226Z,27.80
2023-02-12T20:41:49.242Z,27.80
2023-02-12T20:44:20.120Z,27.80
2023-02-12T20:46:52.555Z,27.80
2023-02-12T20:49:24.989Z,27.80
2023-02-12T20:51:53.351Z,27.80
2023-02-12T20:54:21.656Z,27.80
2023-02-12T20:56:50.493Z,27.70
2023-02-12T20:59:19.209Z,27.70
2023-02-12T21:01:47.958Z,27.70
2023-02-12T21:04:18.393Z,27.80
2023-02-12T21:06:46.678Z,27.80
2023-02-12T21:09:16.220Z,27.80
2023-02-12T21:11:44.909Z,27.80
2023-02-12T21:14:22.014Z,27.90
2023-02-12T21:16:52.597Z,27.90
2023-02-12T21:19:21.035Z,27.90
2023-02-12T21:21:49.411Z,27.80
2023-02-12T21:24:20.803Z,27.90
2023-02-12T21:26:50.121Z,27.90
2023-02-12T21:29:19.142Z,27.90
2023-02-12T21:31:49.797Z,27.90
2023-02-12T21:34:23.295Z,27.90
2023-02-12T21:36:53.518Z,27.80
2023-02-12T21:39:25.646Z,27.90
2023-02-12T21:41:58.205Z,27.90
2023-02-12T21:44:27.658Z,27.90
2023-02-12T21:46:56.579Z,27.80
2023-02-12T21:49:25.520Z,27.80
2023-02-12T21:51:56.360Z,27.70
2023-02-12T21:54:25.220Z,27.70
2023-02-12T21:56:53.401Z,27.70
2023-02-12T21:59:22.400Z,27.70
2023-02-12T22:01:53.810Z,27.70
2023-02-12T22:04:22.357Z,27.60
2023-02-12T22:06:52.151Z,27.50
2023-02-12T22:09:22.502Z,27.50
2023-02-12T22:11:51.355Z,27.50
2023-02-12T22:14:19.940Z,27.50
2023-02-12T22:16:49.117Z,27.50
2023-02-12T22:19:17.671Z,27.50
2023-02-12T22:21:46.046Z,27.40
2023-02-12T22:24:16.680Z,27.40
2023-02-12T22:26:45.391Z,27.40
2023-02-12T22:29:16.311Z,27.40
2023-02-12T22:31:46.794Z,27.30
2023-02-12T22:34:19.340Z,27.30
2023-02-12T22:36:48.875Z,27.20
2023-02-12T22:39:17.860Z,27.20
2023-02-12T22:41:46.900Z,27.20
2023-02-12T22:44:16.668Z,27.20
2023-02-12T22:46:45.362Z,27.20
2023-02-12T22:49:13.645Z,27.20
2023-02-12T22:51:42.104Z,27.20
2023-02-12T22:54:15.839Z,27.30
2023-02-12T22:56:44.648Z,27.30
2023-02-12T22:59:13.780Z,27.30
2023-02-12T23:01:42.294Z,27.20
2023-02-12T23:04:18.901Z,27.20
2023-02-12T23:06:47.387Z,27.20
2023-02-12T23:09:17.544Z,27.10
2023-02-12T23:11:46.073Z,27.00
2023-02-12T23:14:14.637Z,27.00
2023-02-12T23:16:42.767Z,27.00
2023-02-12T23:19:11.922Z,27.00
2023-02-12T23:21:41.012Z,27.00
2023-02-12T23:24:14.546Z,26.90
2023-02-12T23:26:42.855Z,27.00
2023-02-12T23:29:11.362Z,27.00
2023-02-12T23:31:39.723Z,27.00
2023-02-12T23:34:08.114Z,26.90
2023-02-12T23:36:36.570Z,26.90
2023-02-12T23:39:05.182Z,26.90
2023-02-12T23:41:33.353Z,26.90
2023-02-12T23:44:01.551Z,26.90
2023-02-12T23:46:30.039Z,26.80
2023-02-12T23:48:58.363Z,26.90
2023-02-12T23:51:26.623Z,26.90
2023-02-12T23:53:55.084Z,26.90
2023-02-12T23:56:23.839Z,26.90
2023-02-12T23:58:52.145Z,26.90
